sensor_id;sensor_type;location;lat;lon;timestamp;temperature;humidity
18670;DHT22;9464;44.918;9.670;2022-10-16T00:01:38;19.50;1.00
18670;DHT22;9464;44.918;9.670;2022-10-16T00:04:07;19.50;99.90
18670;DHT22;9464;44.918;9.670;2022-10-16T00:06:37;19.50;1.00
18670;DHT22;9464;44.918;9.670;2022-10-16T00:09:06;19.50;1.00
18670;DHT22;9464;44.918;9.670;2022-10-16T00:11:36;19.50;1.00
18670;DHT22;9464;44.918;9.670;2022-10-16T00:14:07;19.50;1.00
18670;DHT22;9464;44.918;9.670;2022-10-16T00:16:35;19.50;99.90
18670;DHT22;9464;44.918;9.670;2022-10-16T00:19:04;19.50;99.90
18670;DHT22;9464;44.918;9.670;2022-10-16T00:21:33;19.50;99.90
18670;DHT22;9464;44.918;9.670;2022-10-16T00:24:04;19.50;99.90
18670;DHT22;9464;44.918;9.670;2022-10-16T00:26:34;19.50;55.30
18670;DHT22;9464;44.918;9.670;2022-10-16T00:29:03;19.50;83.80
18670;DHT22;9464;44.918;9.670;2022-10-16T00:31:31;19.50;99.90
18670;DHT22;9464;44.918;9.670;2022-10-16T00:34:00;19.50;31.80
18670;DHT22;9464;44.918;9.670;2022-10-16T00:36:28;19.50;1.00
18670;DHT22;9464;44.918;9.670;2022-10-16T00:38:57;19.50;99.90
18670;DHT22;9464;44.918;9.670;2022-10-16T00:41:34;19.50;1.00
18670;DHT22;9464;44.918;9.670;2022-10-16T00:44:03;19.50;1.00
18670;DHT22;9464;44.918;9.670;2022-10-16T00:46:37;19.50;1.00
18670;DHT22;9464;44.918;9.670;2022-10-16T00:49:08;19.50;16.50
18670;DHT22;9464;44.918;9.670;2022-10-16T00:51:40;19.50;99.90
18670;DHT22;9464;44.918;9.670;2022-10-16T00:54:11;19.50;1.00
18670;DHT22;9464;44.918;9.670;2022-10-16T00:56:41;19.50;99.90
18670;DHT22;9464;44.918;9.670;2022-10-16T00:59:16;19.50;28.50
18670;DHT22;9464;44.918;9.670;2022-10-16T01:01:44;19.50;1.00
18670;DHT22;9464;44.918;9.670;2022-10-16T01:04:13;19.50;1.00
18670;DHT22;9464;44.918;9.670;2022-10-16T01:06:46;19.50;99.90
18670;DHT22;9464;44.918;9.670;2022-10-16T01:09:21;19.40;49.70
18670;DHT22;9464;44.918;9.670;2022-10-16T01:11:57;19.40;1.00
18670;DHT22;9464;44.918;9.670;2022-10-16T01:14:37;19.40;1.00
18670;DHT22;9464;44.918;9.670;2022-10-16T01:17:12;19.40;1.00
18670;DHT22;9464;44.918;9.670;2022-10-16T01:20:00;19.30;1.00
18670;DHT22;9464;44.918;9.670;2022-10-16T01:22:36;19.30;6.20
18670;DHT22;9464;44.918;9.670;2022-10-16T01:25:09;19.30;1.00
18670;DHT22;9464;44.918;9.670;2022-10-16T01:27:43;19.30;69.90
18670;DHT22;9464;44.918;9.670;2022-10-16T01:30:15;19.30;1.00
18670;DHT22;9464;44.918;9.670;2022-10-16T01:32:48;19.30;1.00
18670;DHT22;9464;44.918;9.670;2022-10-16T01:35:21;19.30;1.00
18670;DHT22;9464;44.918;9.670;2022-10-16T01:37:54;19.20;99.90
18670;DHT22;9464;44.918;9.670;2022-10-16T01:40:26;19.20;99.90
18670;DHT22;9464;44.918;9.670;2022-10-16T01:42:59;19.20;1.00
18670;DHT22;9464;44.918;9.670;2022-10-16T01:45:30;19.20;99.90
18670;DHT22;9464;44.918;9.670;2022-10-16T01:48:01;19.20;32.50
18670;DHT22;9464;44.918;9.670;2022-10-16T01:50:31;19.20;99.90
18670;DHT22;9464;44.918;9.670;2022-10-16T01:53:02;19.20;1.00
18670;DHT22;9464;44.918;9.670;2022-10-16T01:55:33;19.20;33.20
18670;DHT22;9464;44.918;9.670;2022-10-16T01:58:06;19.20;99.90
18670;DHT22;9464;44.918;9.670;2022-10-16T02:00:37;19.20;1.00
18670;DHT22;9464;44.918;9.670;2022-10-16T02:03:06;19.20;99.90
18670;DHT22;9464;44.918;9.670;2022-10-16T02:05:39;19.20;5.40
18670;DHT22;9464;44.918;9.670;2022-10-16T02:08:09;19.20;58.00
18670;DHT22;9464;44.918;9.670;2022-10-16T02:10:37;19.10;99.90
18670;DHT22;9464;44.918;9.670;2022-10-16T02:13:10;19.10;99.90
18670;DHT22;9464;44.918;9.670;2022-10-16T02:15:39;19.10;99.90
18670;DHT22;9464;44.918;9.670;2022-10-16T02:18:07;19.10;99.90
18670;DHT22;9464;44.918;9.670;2022-10-16T02:20:40;19.10;99.90
18670;DHT22;9464;44.918;9.670;2022-10-16T02:23:12;19.10;94.60
18670;DHT22;9464;44.918;9.670;2022-10-16T02:25:46;19.10;1.00
18670;DHT22;9464;44.918;9.670;2022-10-16T02:28:19;19.10;1.00
18670;DHT22;9464;44.918;9.670;2022-10-16T02:30:52;19.10;1.00
18670;DHT22;9464;44.918;9.670;2022-10-16T02:33:22;19.10;58.50
18670;DHT22;9464;44.918;9.670;2022-10-16T02:35:52;19.00;99.90
18670;DHT22;9464;44.918;9.670;2022-10-16T02:38:21;19.00;99.90
18670;DHT22;9464;44.918;9.670;2022-10-16T02:40:50;19.00;99.90
18670;DHT22;9464;44.918;9.670;2022-10-16T02:43:20;19.00;99.90
18670;DHT22;9464;44.918;9.670;2022-10-16T02:45:48;19.00;99.90
18670;DHT22;9464;44.918;9.670;2022-10-16T02:48:16;19.00;99.90
18670;DHT22;9464;44.918;9.670;2022-10-16T02:50:45;19.00;99.90
18670;DHT22;9464;44.918;9.670;2022-10-16T02:53:13;19.00;99.90
18670;DHT22;9464;44.918;9.670;2022-10-16T02:55:41;19.00;99.90
18670;DHT22;9464;44.918;9.670;2022-10-16T02:58:09;19.00;1.00
18670;DHT22;9464;44.918;9.670;2022-10-16T03:00:38;18.90;99.90
18670;DHT22;9464;44.918;9.670;2022-10-16T03:03:07;18.90;99.90
18670;DHT22;9464;44.918;9.670;2022-10-16T03:05:35;18.90;99.90
18670;DHT22;9464;44.918;9.670;2022-10-16T03:08:03;18.90;99.90
18670;DHT22;9464;44.918;9.670;2022-10-16T03:10:31;18.90;99.90
18670;DHT22;9464;44.918;9.670;2022-10-16T03:13:00;18.90;84.30
18670;DHT22;9464;44.918;9.670;2022-10-16T03:15:28;18.90;99.90
18670;DHT22;9464;44.918;9.670;2022-10-16T03:17:59;18.90;99.90
18670;DHT22;9464;44.918;9.670;2022-10-16T03:20:27;18.90;1.00
18670;DHT22;9464;44.918;9.670;2022-10-16T03:22:55;18.90;99.90
18670;DHT22;9464;44.918;9.670;2022-10-16T03:25:23;18.90;1.00
18670;DHT22;9464;44.918;9.670;2022-10-16T03:27:51;18.90;72.00
18670;DHT22;9464;44.918;9.670;2022-10-16T03:30:20;18.90;99.90
18670;DHT22;9464;44.918;9.670;2022-10-16T03:32:48;18.90;99.90
18670;DHT22;9464;44.918;9.670;2022-10-16T03:35:22;18.90;20.40
18670;DHT22;9464;44.918;9.670;2022-10-16T03:37:51;18.90;99.90
18670;DHT22;9464;44.918;9.670;2022-10-16T03:40:19;18.90;99.90
18670;DHT22;9464;44.918;9.670;2022-10-16T03:42:48;18.90;14.10
18670;DHT22;9464;44.918;9.670;2022-10-16T03:45:16;18.90;26.70
18670;DHT22;9464;44.918;9.670;2022-10-16T03:47:44;18.90;99.90
18670;DHT22;9464;44.918;9.670;2022-10-16T03:50:12;18.90;99.90
18670;DHT22;9464;44.918;9.670;2022-10-16T03:52:42;18.90;1.00
18670;DHT22;9464;44.918;9.670;2022-10-16T03:55:10;18.90;1.00
18670;DHT22;9464;44.918;9.670;2022-10-16T03:57:38;18.90;13.80
18670;DHT22;9464;44.918;9.670;2022-10-16T04:00:07;18.90;1.00
18670;DHT22;9464;44.918;9.670;2022-10-16T04:02:35;18.90;99.90
18670;DHT22;9464;44.918;9.670;2022-10-16T04:05:04;18.90;99.90
18670;DHT22;9464;44.918;9.670;2022-10-16T04:07:32;18.90;99.90
18670;DHT22;9464;44.918;9.670;2022-10-16T04:10:01;18.90;1.00
18670;DHT22;9464;44.918;9.670;2022-10-16T04:12:30;18.90;1.00
18670;DHT22;9464;44.918;9.670;2022-10-16T04:14:58;18.90;1.00
18670;DHT22;9464;44.918;9.670;2022-10-16T04:17:26;18.90;99.90
18670;DHT22;9464;44.918;9.670;2022-10-16T04:19:54;18.90;1.00
18670;DHT22;9464;44.918;9.670;2022-10-16T04:22:22;18.90;38.20
18670;DHT22;9464;44.918;9.670;2022-10-16T04:24:51;18.90;1.00
18670;DHT22;9464;44.918;9.670;2022-10-16T04:27:20;18.90;18.70
18670;DHT22;9464;44.918;9.670;2022-10-16T04:29:48;18.90;1.00
18670;DHT22;9464;44.918;9.670;2022-10-16T04:32:17;18.90;1.00
18670;DHT22;9464;44.918;9.670;2022-10-16T04:34:45;18.90;1.00
18670;DHT22;9464;44.918;9.670;2022-10-16T04:37:13;18.90;1.00
18670;DHT22;9464;44.918;9.670;2022-10-16T04:39:41;18.80;99.90
18670;DHT22;9464;44.918;9.670;2022-10-16T04:42:09;18.90;99.90
18670;DHT22;9464;44.918;9.670;2022-10-16T04:44:38;18.90;99.90
18670;DHT22;9464;44.918;9.670;2022-10-16T04:47:07;18.90;99.90
18670;DHT22;9464;44.918;9.670;2022-10-16T04:49:35;18.90;99.90
18670;DHT22;9464;44.918;9.670;2022-10-16T04:52:03;18.90;49.00
18670;DHT22;9464;44.918;9.670;2022-10-16T04:54:31;18.90;1.00
18670;DHT22;9464;44.918;9.670;2022-10-16T04:56:59;18.90;53.70
18670;DHT22;9464;44.918;9.670;2022-10-16T04:59:27;18.90;99.90
18670;DHT22;9464;44.918;9.670;2022-10-16T05:01:57;18.90;1.00
18670;DHT22;9464;44.918;9.670;2022-10-16T05:04:25;18.90;99.90
18670;DHT22;9464;44.918;9.670;2022-10-16T05:06:53;18.90;99.90
18670;DHT22;9464;44.918;9.670;2022-10-16T05:09:21;18.90;99.90
18670;DHT22;9464;44.918;9.670;2022-10-16T05:11:50;18.90;52.60
18670;DHT22;9464;44.918;9.670;2022-10-16T05:14:18;18.90;99.90
18670;DHT22;9464;44.918;9.670;2022-10-16T05:16:46;18.90;1.00
18670;DHT22;9464;44.918;9.670;2022-10-16T05:19:16;18.80;99.90
18670;DHT22;9464;44.918;9.670;2022-10-16T05:21:59;18.80;99.90
18670;DHT22;9464;44.918;9.670;2022-10-16T05:24:27;18.80;99.90
18670;DHT22;9464;44.918;9.670;2022-10-16T05:26:56;18.80;1.00
18670;DHT22;9464;44.918;9.670;2022-10-16T05:29:24;18.80;99.90
18670;DHT22;9464;44.918;9.670;2022-10-16T05:31:53;18.70;78.90
18670;DHT22;9464;44.918;9.670;2022-10-16T05:34:22;18.70;99.90
18670;DHT22;9464;44.918;9.670;2022-10-16T05:36:50;18.70;99.90
18670;DHT22;9464;44.918;9.670;2022-10-16T05:39:18;18.70;18.20
18670;DHT22;9464;44.918;9.670;2022-10-16T05:41:49;18.70;99.90
18670;DHT22;9464;44.918;9.670;2022-10-16T05:44:17;18.70;1.00
18670;DHT22;9464;44.918;9.670;2022-10-16T05:46:46;18.70;99.90
18670;DHT22;9464;44.918;9.670;2022-10-16T05:49:14;18.60;99.90
18670;DHT22;9464;44.918;9.670;2022-10-16T05:51:44;18.60;1.00
18670;DHT22;9464;44.918;9.670;2022-10-16T05:54:12;18.70;1.00
18670;DHT22;9464;44.918;9.670;2022-10-16T05:56:40;18.70;1.00
18670;DHT22;9464;44.918;9.670;2022-10-16T05:59:08;18.70;1.00
18670;DHT22;9464;44.918;9.670;2022-10-16T06:01:37;18.70;18.00
18670;DHT22;9464;44.918;9.670;2022-10-16T06:04:05;18.70;1.00
18670;DHT22;9464;44.918;9.670;2022-10-16T06:06:33;18.70;99.90
18670;DHT22;9464;44.918;9.670;2022-10-16T06:09:04;18.70;1.00
18670;DHT22;9464;44.918;9.670;2022-10-16T06:11:33;18.70;1.00
18670;DHT22;9464;44.918;9.670;2022-10-16T06:14:02;18.70;1.00
18670;DHT22;9464;44.918;9.670;2022-10-16T06:16:34;18.70;1.00
18670;DHT22;9464;44.918;9.670;2022-10-16T06:19:03;18.70;1.00
18670;DHT22;9464;44.918;9.670;2022-10-16T06:21:33;18.70;1.00
18670;DHT22;9464;44.918;9.670;2022-10-16T06:24:01;18.70;1.00
18670;DHT22;9464;44.918;9.670;2022-10-16T06:26:31;18.70;99.90
18670;DHT22;9464;44.918;9.670;2022-10-16T06:29:00;18.70;99.90
18670;DHT22;9464;44.918;9.670;2022-10-16T06:31:28;18.70;1.00
18670;DHT22;9464;44.918;9.670;2022-10-16T06:33:58;18.70;1.00
18670;DHT22;9464;44.918;9.670;2022-10-16T06:36:26;18.70;1.00
18670;DHT22;9464;44.918;9.670;2022-10-16T06:38:54;18.80;19.50
18670;DHT22;9464;44.918;9.670;2022-10-16T06:41:23;18.80;1.00
18670;DHT22;9464;44.918;9.670;2022-10-16T06:43:52;18.80;1.00
18670;DHT22;9464;44.918;9.670;2022-10-16T06:46:23;18.80;1.00
18670;DHT22;9464;44.918;9.670;2022-10-16T06:48:52;18.80;1.00
18670;DHT22;9464;44.918;9.670;2022-10-16T06:51:22;18.80;50.40
18670;DHT22;9464;44.918;9.670;2022-10-16T06:53:51;18.80;1.00
18670;DHT22;9464;44.918;9.670;2022-10-16T06:56:30;18.80;1.00
18670;DHT22;9464;44.918;9.670;2022-10-16T06:59:00;18.80;99.90
18670;DHT22;9464;44.918;9.670;2022-10-16T07:01:29;18.80;13.90
18670;DHT22;9464;44.918;9.670;2022-10-16T07:03:57;18.80;90.10
18670;DHT22;9464;44.918;9.670;2022-10-16T07:06:26;18.90;61.30
18670;DHT22;9464;44.918;9.670;2022-10-16T07:08:55;18.90;1.00
18670;DHT22;9464;44.918;9.670;2022-10-16T07:11:23;18.90;1.00
18670;DHT22;9464;44.918;9.670;2022-10-16T07:13:52;18.90;1.00
18670;DHT22;9464;44.918;9.670;2022-10-16T07:16:25;18.90;1.00
18670;DHT22;9464;44.918;9.670;2022-10-16T07:18:54;18.90;99.90
18670;DHT22;9464;44.918;9.670;2022-10-16T07:21:26;18.90;99.90
18670;DHT22;9464;44.918;9.670;2022-10-16T07:23:57;19.30;99.90
18670;DHT22;9464;44.918;9.670;2022-10-16T07:26:27;19.20;99.90
18670;DHT22;9464;44.918;9.670;2022-10-16T07:28:55;19.10;1.00
18670;DHT22;9464;44.918;9.670;2022-10-16T07:31:25;19.10;66.40
18670;DHT22;9464;44.918;9.670;2022-10-16T07:33:54;19.10;99.90
18670;DHT22;9464;44.918;9.670;2022-10-16T07:36:22;19.10;1.00
18670;DHT22;9464;44.918;9.670;2022-10-16T07:38:50;19.10;82.10
18670;DHT22;9464;44.918;9.670;2022-10-16T07:41:24;19.10;1.00
18670;DHT22;9464;44.918;9.670;2022-10-16T07:43:53;19.20;99.90
18670;DHT22;9464;44.918;9.670;2022-10-16T07:46:22;19.20;99.90
18670;DHT22;9464;44.918;9.670;2022-10-16T07:48:52;19.20;99.90
18670;DHT22;9464;44.918;9.670;2022-10-16T07:51:21;19.20;30.30
18670;DHT22;9464;44.918;9.670;2022-10-16T07:53:50;19.30;99.90
18670;DHT22;9464;44.918;9.670;2022-10-16T07:56:19;19.30;99.90
18670;DHT22;9464;44.918;9.670;2022-10-16T07:58:47;19.30;1.00
18670;DHT22;9464;44.918;9.670;2022-10-16T08:01:17;19.30;1.00
18670;DHT22;9464;44.918;9.670;2022-10-16T08:03:47;19.30;99.90
18670;DHT22;9464;44.918;9.670;2022-10-16T08:06:17;19.40;99.90
18670;DHT22;9464;44.918;9.670;2022-10-16T08:08:52;19.40;99.90
18670;DHT22;9464;44.918;9.670;2022-10-16T08:11:20;19.40;1.00
18670;DHT22;9464;44.918;9.670;2022-10-16T08:13:50;19.40;1.00
18670;DHT22;9464;44.918;9.670;2022-10-16T08:16:18;19.50;1.00
18670;DHT22;9464;44.918;9.670;2022-10-16T08:18:46;19.50;99.90
18670;DHT22;9464;44.918;9.670;2022-10-16T08:21:17;19.50;99.90
18670;DHT22;9464;44.918;9.670;2022-10-16T08:23:47;19.50;1.00
18670;DHT22;9464;44.918;9.670;2022-10-16T08:26:24;19.50;99.90
18670;DHT22;9464;44.918;9.670;2022-10-16T08:28:52;19.60;99.90
18670;DHT22;9464;44.918;9.670;2022-10-16T08:31:21;19.50;99.90
18670;DHT22;9464;44.918;9.670;2022-10-16T08:33:49;19.60;1.00
18670;DHT22;9464;44.918;9.670;2022-10-16T08:36:20;19.60;1.00
18670;DHT22;9464;44.918;9.670;2022-10-16T08:38:49;19.60;1.00
18670;DHT22;9464;44.918;9.670;2022-10-16T08:41:55;19.60;99.90
18670;DHT22;9464;44.918;9.670;2022-10-16T08:44:47;19.70;99.90
18670;DHT22;9464;44.918;9.670;2022-10-16T08:47:24;19.70;1.00
18670;DHT22;9464;44.918;9.670;2022-10-16T08:49:56;19.70;1.00
18670;DHT22;9464;44.918;9.670;2022-10-16T08:52:29;19.80;99.90
18670;DHT22;9464;44.918;9.670;2022-10-16T08:54:58;19.80;99.90
18670;DHT22;9464;44.918;9.670;2022-10-16T08:57:27;19.80;1.00
18670;DHT22;9464;44.918;9.670;2022-10-16T08:59:59;19.80;1.00
18670;DHT22;9464;44.918;9.670;2022-10-16T09:02:32;19.80;1.00
18670;DHT22;9464;44.918;9.670;2022-10-16T09:05:18;19.90;1.00
18670;DHT22;9464;44.918;9.670;2022-10-16T09:07:56;19.90;1.00
18670;DHT22;9464;44.918;9.670;2022-10-16T09:10:38;19.90;99.90
18670;DHT22;9464;44.918;9.670;2022-10-16T09:13:18;19.90;99.90
18670;DHT22;9464;44.918;9.670;2022-10-16T09:15:52;20.00;99.90
18670;DHT22;9464;44.918;9.670;2022-10-16T09:18:27;20.00;1.00
18670;DHT22;9464;44.918;9.670;2022-10-16T09:21:02;20.00;99.90
18670;DHT22;9464;44.918;9.670;2022-10-16T09:23:36;20.00;99.90
18670;DHT22;9464;44.918;9.670;2022-10-16T09:26:05;20.10;1.00
18670;DHT22;9464;44.918;9.670;2022-10-16T09:28:37;20.10;1.00
18670;DHT22;9464;44.918;9.670;2022-10-16T09:31:11;20.10;99.90
18670;DHT22;9464;44.918;9.670;2022-10-16T09:33:42;20.10;30.70
18670;DHT22;9464;44.918;9.670;2022-10-16T09:36:12;20.10;1.00
18670;DHT22;9464;44.918;9.670;2022-10-16T09:38:42;20.10;1.00
18670;DHT22;9464;44.918;9.670;2022-10-16T09:41:21;20.20;14.00
18670;DHT22;9464;44.918;9.670;2022-10-16T09:43:54;20.20;1.00
18670;DHT22;9464;44.918;9.670;2022-10-16T09:46:26;20.20;1.00
18670;DHT22;9464;44.918;9.670;2022-10-16T09:48:57;20.30;1.00
18670;DHT22;9464;44.918;9.670;2022-10-16T09:51:28;20.30;4.60
18670;DHT22;9464;44.918;9.670;2022-10-16T09:53:59;20.30;1.00
18670;DHT22;9464;44.918;9.670;2022-10-16T09:56:29;20.30;1.00
18670;DHT22;9464;44.918;9.670;2022-10-16T09:59:01;20.30;1.00
18670;DHT22;9464;44.918;9.670;2022-10-16T10:01:35;20.20;99.90
18670;DHT22;9464;44.918;9.670;2022-10-16T10:04:05;20.30;1.00
18670;DHT22;9464;44.918;9.670;2022-10-16T10:06:35;20.30;99.90
18670;DHT22;9464;44.918;9.670;2022-10-16T10:09:16;20.30;1.00
18670;DHT22;9464;44.918;9.670;2022-10-16T10:11:55;20.30;1.00
18670;DHT22;9464;44.918;9.670;2022-10-16T10:14:30;20.30;1.00
18670;DHT22;9464;44.918;9.670;2022-10-16T10:17:11;20.30;29.90
18670;DHT22;9464;44.918;9.670;2022-10-16T10:19:48;20.40;99.90
18670;DHT22;9464;44.918;9.670;2022-10-16T10:22:27;20.40;99.90
18670;DHT22;9464;44.918;9.670;2022-10-16T10:25:18;20.40;71.30
18670;DHT22;9464;44.918;9.670;2022-10-16T10:27:56;20.50;66.10
18670;DHT22;9464;44.918;9.670;2022-10-16T10:30:35;20.50;1.00
18670;DHT22;9464;44.918;9.670;2022-10-16T10:33:16;20.50;1.00
18670;DHT22;9464;44.918;9.670;2022-10-16T10:35:54;20.50;1.00
18670;DHT22;9464;44.918;9.670;2022-10-16T10:38:34;20.50;1.00
18670;DHT22;9464;44.918;9.670;2022-10-16T10:41:22;20.50;1.00
18670;DHT22;9464;44.918;9.670;2022-10-16T10:44:03;20.60;1.00
18670;DHT22;9464;44.918;9.670;2022-10-16T10:46:36;20.60;1.00
18670;DHT22;9464;44.918;9.670;2022-10-16T10:49:24;20.70;1.00
18670;DHT22;9464;44.918;9.670;2022-10-16T10:52:05;20.70;1.00
18670;DHT22;9464;44.918;9.670;2022-10-16T10:54:41;20.80;1.00
18670;DHT22;9464;44.918;9.670;2022-10-16T10:57:22;20.80;1.00
18670;DHT22;9464;44.918;9.670;2022-10-16T11:00:06;20.80;1.00
18670;DHT22;9464;44.918;9.670;2022-10-16T11:02:40;20.80;1.00
18670;DHT22;9464;44.918;9.670;2022-10-16T11:05:28;20.80;1.00
18670;DHT22;9464;44.918;9.670;2022-10-16T11:07:59;20.90;1.00
18670;DHT22;9464;44.918;9.670;2022-10-16T11:10:33;20.80;1.00
18670;DHT22;9464;44.918;9.670;2022-10-16T11:13:21;20.90;1.00
18670;DHT22;9464;44.918;9.670;2022-10-16T11:15:55;21.00;1.00
18670;DHT22;9464;44.918;9.670;2022-10-16T11:18:27;21.00;1.00
18670;DHT22;9464;44.918;9.670;2022-10-16T11:21:03;20.90;1.00
18670;DHT22;9464;44.918;9.670;2022-10-16T11:23:38;21.00;1.00
18670;DHT22;9464;44.918;9.670;2022-10-16T11:26:13;21.00;1.00
18670;DHT22;9464;44.918;9.670;2022-10-16T11:28:47;21.10;1.00
18670;DHT22;9464;44.918;9.670;2022-10-16T11:31:19;21.10;1.00
18670;DHT22;9464;44.918;9.670;2022-10-16T11:33:54;21.10;1.00
18670;DHT22;9464;44.918;9.670;2022-10-16T11:36:29;21.10;1.00
18670;DHT22;9464;44.918;9.670;2022-10-16T11:39:04;21.20;1.00
18670;DHT22;9464;44.918;9.670;2022-10-16T11:41:41;21.20;1.00
18670;DHT22;9464;44.918;9.670;2022-10-16T11:44:30;21.30;1.00
18670;DHT22;9464;44.918;9.670;2022-10-16T11:47:07;21.30;1.00
18670;DHT22;9464;44.918;9.670;2022-10-16T11:49:59;21.30;1.00
18670;DHT22;9464;44.918;9.670;2022-10-16T11:52:33;21.40;1.00
18670;DHT22;9464;44.918;9.670;2022-10-16T11:55:08;21.40;1.00
18670;DHT22;9464;44.918;9.670;2022-10-16T11:57:44;21.40;1.00
18670;DHT22;9464;44.918;9.670;2022-10-16T12:00:22;21.40;1.00
18670;DHT22;9464;44.918;9.670;2022-10-16T12:02:58;21.40;1.00
18670;DHT22;9464;44.918;9.670;2022-10-16T12:05:35;21.50;1.00
18670;DHT22;9464;44.918;9.670;2022-10-16T12:08:09;21.50;1.00
18670;DHT22;9464;44.918;9.670;2022-10-16T12:10:39;21.50;1.00
18670;DHT22;9464;44.918;9.670;2022-10-16T12:13:29;21.50;1.00
18670;DHT22;9464;44.918;9.670;2022-10-16T12:16:06;21.50;1.00
18670;DHT22;9464;44.918;9.670;2022-10-16T12:18:35;21.60;1.00
18670;DHT22;9464;44.918;9.670;2022-10-16T12:21:03;21.50;1.00
18670;DHT22;9464;44.918;9.670;2022-10-16T12:23:37;21.60;1.00
18670;DHT22;9464;44.918;9.670;2022-10-16T12:26:05;21.60;1.00
18670;DHT22;9464;44.918;9.670;2022-10-16T12:28:34;21.60;1.00
18670;DHT22;9464;44.918;9.670;2022-10-16T12:31:06;21.60;1.00
18670;DHT22;9464;44.918;9.670;2022-10-16T12:33:37;21.60;1.00
18670;DHT22;9464;44.918;9.670;2022-10-16T12:36:13;21.60;1.00
18670;DHT22;9464;44.918;9.670;2022-10-16T12:38:47;21.70;1.00
18670;DHT22;9464;44.918;9.670;2022-10-16T12:41:25;21.70;1.00
18670;DHT22;9464;44.918;9.670;2022-10-16T12:43:53;21.70;1.00
18670;DHT22;9464;44.918;9.670;2022-10-16T12:46:35;21.70;1.00
18670;DHT22;9464;44.918;9.670;2022-10-16T12:49:29;21.70;1.00
18670;DHT22;9464;44.918;9.670;2022-10-16T12:51:57;21.60;1.00
18670;DHT22;9464;44.918;9.670;2022-10-16T12:54:28;21.70;1.00
18670;DHT22;9464;44.918;9.670;2022-10-16T12:57:13;21.60;1.00
18670;DHT22;9464;44.918;9.670;2022-10-16T12:59:52;21.60;1.00
18670;DHT22;9464;44.918;9.670;2022-10-16T13:05:46;21.70;1.00
18670;DHT22;9464;44.918;9.670;2022-10-16T13:08:33;21.70;1.00
18670;DHT22;9464;44.918;9.670;2022-10-16T13:11:07;21.70;1.00
18670;DHT22;9464;44.918;9.670;2022-10-16T13:13:53;21.70;1.00
18670;DHT22;9464;44.918;9.670;2022-10-16T13:16:30;21.70;1.00
18670;DHT22;9464;44.918;9.670;2022-10-16T13:19:11;21.70;1.00
18670;DHT22;9464;44.918;9.670;2022-10-16T13:21:51;21.80;1.00
18670;DHT22;9464;44.918;9.670;2022-10-16T13:24:36;21.80;1.00
18670;DHT22;9464;44.918;9.670;2022-10-16T13:27:16;21.80;1.00
18670;DHT22;9464;44.918;9.670;2022-10-16T13:29:52;21.80;1.00
18670;DHT22;9464;44.918;9.670;2022-10-16T13:32:22;21.80;1.00
18670;DHT22;9464;44.918;9.670;2022-10-16T13:34:50;21.80;1.00
18670;DHT22;9464;44.918;9.670;2022-10-16T13:37:23;21.80;1.00
18670;DHT22;9464;44.918;9.670;2022-10-16T13:40:02;21.80;1.00
18670;DHT22;9464;44.918;9.670;2022-10-16T13:42:35;21.90;1.00
18670;DHT22;9464;44.918;9.670;2022-10-16T13:45:04;21.90;1.00
18670;DHT22;9464;44.918;9.670;2022-10-16T13:47:32;21.90;1.00
18670;DHT22;9464;44.918;9.670;2022-10-16T13:50:01;21.90;99.90
18670;DHT22;9464;44.918;9.670;2022-10-16T13:52:32;21.90;99.90
18670;DHT22;9464;44.918;9.670;2022-10-16T13:55:00;21.90;99.90
18670;DHT22;9464;44.918;9.670;2022-10-16T13:57:29;22.00;99.90
18670;DHT22;9464;44.918;9.670;2022-10-16T13:59:57;22.00;99.90
18670;DHT22;9464;44.918;9.670;2022-10-16T14:02:27;22.00;99.90
18670;DHT22;9464;44.918;9.670;2022-10-16T14:04:57;22.00;99.90
18670;DHT22;9464;44.918;9.670;2022-10-16T14:07:27;21.90;99.90
18670;DHT22;9464;44.918;9.670;2022-10-16T14:10:03;21.90;99.90
18670;DHT22;9464;44.918;9.670;2022-10-16T14:12:31;21.90;99.90
18670;DHT22;9464;44.918;9.670;2022-10-16T14:15:01;21.90;99.90
18670;DHT22;9464;44.918;9.670;2022-10-16T14:17:30;22.00;99.90
18670;DHT22;9464;44.918;9.670;2022-10-16T14:20:03;22.00;99.90
18670;DHT22;9464;44.918;9.670;2022-10-16T14:22:35;22.00;99.90
18670;DHT22;9464;44.918;9.670;2022-10-16T14:25:28;22.00;99.90
18670;DHT22;9464;44.918;9.670;2022-10-16T14:27:59;22.00;99.90
18670;DHT22;9464;44.918;9.670;2022-10-16T14:30:35;21.90;99.90
18670;DHT22;9464;44.918;9.670;2022-10-16T14:33:04;21.90;99.90
18670;DHT22;9464;44.918;9.670;2022-10-16T14:35:35;22.00;99.90
18670;DHT22;9464;44.918;9.670;2022-10-16T14:38:04;22.00;99.90
18670;DHT22;9464;44.918;9.670;2022-10-16T14:40:36;22.00;99.90
18670;DHT22;9464;44.918;9.670;2022-10-16T14:43:05;22.00;99.90
18670;DHT22;9464;44.918;9.670;2022-10-16T14:45:34;22.00;99.90
18670;DHT22;9464;44.918;9.670;2022-10-16T14:48:06;22.00;99.90
18670;DHT22;9464;44.918;9.670;2022-10-16T14:50:45;22.00;99.90
18670;DHT22;9464;44.918;9.670;2022-10-16T14:53:14;22.10;99.90
18670;DHT22;9464;44.918;9.670;2022-10-16T14:55:44;22.00;99.90
18670;DHT22;9464;44.918;9.670;2022-10-16T14:58:15;22.00;99.90
18670;DHT22;9464;44.918;9.670;2022-10-16T15:00:43;22.00;1.00
18670;DHT22;9464;44.918;9.670;2022-10-16T15:03:11;22.00;99.90
18670;DHT22;9464;44.918;9.670;2022-10-16T15:05:40;22.00;1.00
18670;DHT22;9464;44.918;9.670;2022-10-16T15:08:08;22.00;99.90
18670;DHT22;9464;44.918;9.670;2022-10-16T15:10:42;22.00;99.90
18670;DHT22;9464;44.918;9.670;2022-10-16T15:13:13;22.00;1.00
18670;DHT22;9464;44.918;9.670;2022-10-16T15:15:43;21.90;1.00
18670;DHT22;9464;44.918;9.670;2022-10-16T15:18:11;21.90;99.90
18670;DHT22;9464;44.918;9.670;2022-10-16T15:20:41;21.90;1.00
18670;DHT22;9464;44.918;9.670;2022-10-16T15:23:13;22.00;99.90
18670;DHT22;9464;44.918;9.670;2022-10-16T15:25:43;22.00;99.90
18670;DHT22;9464;44.918;9.670;2022-10-16T15:28:14;21.90;99.90
18670;DHT22;9464;44.918;9.670;2022-10-16T15:30:43;21.90;1.00
18670;DHT22;9464;44.918;9.670;2022-10-16T15:33:14;21.90;1.00
18670;DHT22;9464;44.918;9.670;2022-10-16T15:35:45;21.90;1.00
18670;DHT22;9464;44.918;9.670;2022-10-16T15:38:14;21.90;1.00
18670;DHT22;9464;44.918;9.670;2022-10-16T15:40:42;21.90;1.00
18670;DHT22;9464;44.918;9.670;2022-10-16T15:43:10;21.90;1.00
18670;DHT22;9464;44.918;9.670;2022-10-16T15:45:40;21.90;99.90
18670;DHT22;9464;44.918;9.670;2022-10-16T15:48:10;21.90;99.90
18670;DHT22;9464;44.918;9.670;2022-10-16T15:50:40;21.90;99.90
18670;DHT22;9464;44.918;9.670;2022-10-16T15:53:10;21.90;99.90
18670;DHT22;9464;44.918;9.670;2022-10-16T15:55:38;21.80;99.90
18670;DHT22;9464;44.918;9.670;2022-10-16T15:58:06;21.90;99.90
18670;DHT22;9464;44.918;9.670;2022-10-16T16:00:34;21.90;99.90
18670;DHT22;9464;44.918;9.670;2022-10-16T16:03:04;21.90;99.90
18670;DHT22;9464;44.918;9.670;2022-10-16T16:05:32;21.80;99.90
18670;DHT22;9464;44.918;9.670;2022-10-16T16:08:02;21.80;99.90
18670;DHT22;9464;44.918;9.670;2022-10-16T16:10:30;21.80;99.90
18670;DHT22;9464;44.918;9.670;2022-10-16T16:12:58;21.80;99.90
18670;DHT22;9464;44.918;9.670;2022-10-16T16:15:26;21.70;99.90
18670;DHT22;9464;44.918;9.670;2022-10-16T16:17:54;21.70;99.90
18670;DHT22;9464;44.918;9.670;2022-10-16T16:20:24;21.70;99.90
18670;DHT22;9464;44.918;9.670;2022-10-16T16:22:52;21.70;99.90
18670;DHT22;9464;44.918;9.670;2022-10-16T16:25:20;21.60;99.90
18670;DHT22;9464;44.918;9.670;2022-10-16T16:27:48;21.60;99.90